sensor_id;sensor_type;location;lat;lon;timestamp;temperature;humidity
38798;SHT11;24546;52.240;16.826;2022-09-29T00:04:56;11.40;99.90
38798;SHT11;24546;52.240;16.826;2022-09-29T00:09:57;11.40;99.90
38798;SHT11;24546;52.240;16.826;2022-09-29T00:14:58;11.30;99.90
38798;SHT11;24546;52.240;16.826;2022-09-29T00:19:59;11.20;99.90
38798;SHT11;24546;52.240;16.826;2022-09-29T00:25:00;11.10;99.90
38798;SHT11;24546;52.240;16.826;2022-09-29T00:30:01;11.20;99.90
38798;SHT11;24546;52.240;16.826;2022-09-29T00:35:02;11.10;99.90
38798;SHT11;24546;52.240;16.826;2022-09-29T00:40:04;10.90;99.90
38798;SHT11;24546;52.240;16.826;2022-09-29T00:50:32;11.00;99.90
38798;SHT11;24546;52.240;16.826;2022-09-29T00:55:41;11.10;99.90
38798;SHT11;24546;52.240;16.826;2022-09-29T01:00:45;11.10;99.90
38798;SHT11;24546;52.240;16.826;2022-09-29T01:05:50;11.20;99.90
38798;SHT11;24546;52.240;16.826;2022-09-29T01:10:56;11.20;99.90
38798;SHT11;24546;52.240;16.826;2022-09-29T01:15:57;11.20;99.90
38798;SHT11;24546;52.240;16.826;2022-09-29T01:42:18;11.20;99.90
38798;SHT11;24546;52.240;16.826;2022-09-29T01:52:35;11.20;99.90
38798;SHT11;24546;52.240;16.826;2022-09-29T01:57:51;11.20;99.90
38798;SHT11;24546;52.240;16.826;2022-09-29T02:03:13;11.20;99.90
38798;SHT11;24546;52.240;16.826;2022-09-29T02:08:28;11.20;99.90
38798;SHT11;24546;52.240;16.826;2022-09-29T02:13:42;11.20;99.90
38798;SHT11;24546;52.240;16.826;2022-09-29T02:18:53;11.20;99.90
38798;SHT11;24546;52.240;16.826;2022-09-29T02:23:54;11.20;99.90
38798;SHT11;24546;52.240;16.826;2022-09-29T02:28:56;11.20;99.90
38798;SHT11;24546;52.240;16.826;2022-09-29T02:33:58;11.20;99.90
38798;SHT11;24546;52.240;16.826;2022-09-29T02:39:00;11.10;99.90
38798;SHT11;24546;52.240;16.826;2022-09-29T02:44:16;11.10;99.90
38798;SHT11;24546;52.240;16.826;2022-09-29T03:00:13;11.10;99.90
38798;SHT11;24546;52.240;16.826;2022-09-29T03:05:18;10.90;99.90
38798;SHT11;24546;52.240;16.826;2022-09-29T03:10:19;10.80;99.90
38798;SHT11;24546;52.240;16.826;2022-09-29T03:15:20;10.70;99.90
38798;SHT11;24546;52.240;16.826;2022-09-29T03:20:21;10.70;99.90
38798;SHT11;24546;52.240;16.826;2022-09-29T03:25:22;10.70;99.90
38798;SHT11;24546;52.240;16.826;2022-09-29T03:30:24;10.80;99.90
38798;SHT11;24546;52.240;16.826;2022-09-29T03:35:25;10.60;99.90
38798;SHT11;24546;52.240;16.826;2022-09-29T03:40:27;10.60;99.90
38798;SHT11;24546;52.240;16.826;2022-09-29T03:45:28;10.40;99.90
38798;SHT11;24546;52.240;16.826;2022-09-29T03:50:28;10.30;99.90
38798;SHT11;24546;52.240;16.826;2022-09-29T03:55:29;10.10;99.90
38798;SHT11;24546;52.240;16.826;2022-09-29T04:00:30;10.20;99.90
38798;SHT11;24546;52.240;16.826;2022-09-29T04:05:32;10.20;99.90
38798;SHT11;24546;52.240;16.826;2022-09-29T04:10:38;10.40;99.90
38798;SHT11;24546;52.240;16.826;2022-09-29T04:15:39;10.40;99.90
38798;SHT11;24546;52.240;16.826;2022-09-29T04:20:40;10.50;99.90
38798;SHT11;24546;52.240;16.826;2022-09-29T04:25:43;10.40;99.90
38798;SHT11;24546;52.240;16.826;2022-09-29T04:30:45;10.50;99.90
38798;SHT11;24546;52.240;16.826;2022-09-29T04:35:46;10.50;99.90
38798;SHT11;24546;52.240;16.826;2022-09-29T04:40:47;10.40;99.90
38798;SHT11;24546;52.240;16.826;2022-09-29T04:45:48;10.50;99.90
38798;SHT11;24546;52.240;16.826;2022-09-29T04:50:49;10.30;99.90
38798;SHT11;24546;52.240;16.826;2022-09-29T04:55:52;10.40;99.90
38798;SHT11;24546;52.240;16.826;2022-09-29T05:00:53;10.30;99.90
38798;SHT11;24546;52.240;16.826;2022-09-29T05:05:54;10.40;99.90
38798;SHT11;24546;52.240;16.826;2022-09-29T05:10:55;10.40;99.90
38798;SHT11;24546;52.240;16.826;2022-09-29T05:15:56;10.50;99.90
38798;SHT11;24546;52.240;16.826;2022-09-29T05:21:04;10.30;99.90
38798;SHT11;24546;52.240;16.826;2022-09-29T05:26:06;10.40;99.90
38798;SHT11;24546;52.240;16.826;2022-09-29T05:31:09;10.30;99.90
38798;SHT11;24546;52.240;16.826;2022-09-29T05:36:11;10.20;99.90
38798;SHT11;24546;52.240;16.826;2022-09-29T05:41:12;10.20;99.90
38798;SHT11;24546;52.240;16.826;2022-09-29T05:46:13;10.40;99.90
38798;SHT11;24546;52.240;16.826;2022-09-29T05:51:17;10.60;99.90
38798;SHT11;24546;52.240;16.826;2022-09-29T05:56:26;10.80;99.90
38798;SHT11;24546;52.240;16.826;2022-09-29T06:01:27;10.90;99.90
38798;SHT11;24546;52.240;16.826;2022-09-29T06:06:28;11.00;99.90
38798;SHT11;24546;52.240;16.826;2022-09-29T06:11:31;11.10;99.90
38798;SHT11;24546;52.240;16.826;2022-09-29T06:16:32;11.20;99.90
38798;SHT11;24546;52.240;16.826;2022-09-29T06:21:34;11.20;99.90
38798;SHT11;24546;52.240;16.826;2022-09-29T06:26:37;11.20;99.90
38798;SHT11;24546;52.240;16.826;2022-09-29T06:31:38;11.30;99.90
38798;SHT11;24546;52.240;16.826;2022-09-29T06:36:41;11.40;99.90
38798;SHT11;24546;52.240;16.826;2022-09-29T06:42:01;11.50;99.90
38798;SHT11;24546;52.240;16.826;2022-09-29T06:47:03;11.50;99.90
38798;SHT11;24546;52.240;16.826;2022-09-29T06:52:04;11.60;99.90
38798;SHT11;24546;52.240;16.826;2022-09-29T06:57:05;11.70;99.90
38798;SHT11;24546;52.240;16.826;2022-09-29T07:02:08;11.80;99.90
38798;SHT11;24546;52.240;16.826;2022-09-29T07:07:09;11.90;99.90
38798;SHT11;24546;52.240;16.826;2022-09-29T07:12:10;11.80;99.90
38798;SHT11;24546;52.240;16.826;2022-09-29T07:17:11;12.00;99.90
38798;SHT11;24546;52.240;16.826;2022-09-29T07:22:15;12.00;99.90
38798;SHT11;24546;52.240;16.826;2022-09-29T07:27:16;11.80;99.90
38798;SHT11;24546;52.240;16.826;2022-09-29T07:32:23;11.90;99.90
38798;SHT11;24546;52.240;16.826;2022-09-29T07:37:24;12.10;99.90
38798;SHT11;24546;52.240;16.826;2022-09-29T07:42:27;12.10;99.90
38798;SHT11;24546;52.240;16.826;2022-09-29T07:47:28;12.30;99.90
38798;SHT11;24546;52.240;16.826;2022-09-29T07:52:29;12.80;99.90
38798;SHT11;24546;52.240;16.826;2022-09-29T07:57:30;13.10;99.90
38798;SHT11;24546;52.240;16.826;2022-09-29T08:02:31;13.20;99.90
38798;SHT11;24546;52.240;16.826;2022-09-29T08:07:32;13.70;99.90
38798;SHT11;24546;52.240;16.826;2022-09-29T08:12:33;13.60;99.90
38798;SHT11;24546;52.240;16.826;2022-09-29T08:17:33;13.80;99.90
38798;SHT11;24546;52.240;16.826;2022-09-29T08:22:34;13.70;99.90
38798;SHT11;24546;52.240;16.826;2022-09-29T08:27:35;14.00;99.90
38798;SHT11;24546;52.240;16.826;2022-09-29T08:32:36;13.90;99.90
38798;SHT11;24546;52.240;16.826;2022-09-29T08:37:38;14.40;99.90
38798;SHT11;24546;52.240;16.826;2022-09-29T08:43:08;14.10;99.90
38798;SHT11;24546;52.240;16.826;2022-09-29T08:48:22;14.00;99.90
38798;SHT11;24546;52.240;16.826;2022-09-29T08:53:26;14.30;99.90
38798;SHT11;24546;52.240;16.826;2022-09-29T08:58:27;14.30;99.90
38798;SHT11;24546;52.240;16.826;2022-09-29T09:09:02;14.50;99.90
38798;SHT11;24546;52.240;16.826;2022-09-29T09:30:14;15.30;99.90
38798;SHT11;24546;52.240;16.826;2022-09-29T09:35:35;15.70;99.90
38798;SHT11;24546;52.240;16.826;2022-09-29T09:40:44;15.90;99.90
38798;SHT11;24546;52.240;16.826;2022-09-29T09:51:36;16.10;99.90
38798;SHT11;24546;52.240;16.826;2022-09-29T10:02:17;16.90;99.90
38798;SHT11;24546;52.240;16.826;2022-09-29T10:07:21;17.10;99.90
38798;SHT11;24546;52.240;16.826;2022-09-29T10:12:24;17.00;99.90
38798;SHT11;24546;52.240;16.826;2022-09-29T10:17:35;17.10;99.90
38798;SHT11;24546;52.240;16.826;2022-09-29T10:22:37;17.10;99.90
38798;SHT11;24546;52.240;16.826;2022-09-29T10:27:41;16.80;99.90
38798;SHT11;24546;52.240;16.826;2022-09-29T10:32:43;17.00;99.90
38798;SHT11;24546;52.240;16.826;2022-09-29T10:38:01;17.60;98.00
38798;SHT11;24546;52.240;16.826;2022-09-29T10:43:22;17.80;98.70
38798;SHT11;24546;52.240;16.826;2022-09-29T10:48:25;17.80;99.10
38798;SHT11;24546;52.240;16.826;2022-09-29T10:53:41;17.50;98.70
38798;SHT11;24546;52.240;16.826;2022-09-29T10:58:50;17.70;98.60
38798;SHT11;24546;52.240;16.826;2022-09-29T11:03:55;17.80;97.80
38798;SHT11;24546;52.240;16.826;2022-09-29T11:19:35;18.30;98.20
38798;SHT11;24546;52.240;16.826;2022-09-29T11:24:59;17.90;98.00
38798;SHT11;24546;52.240;16.826;2022-09-29T11:30:09;18.10;97.90
38798;SHT11;24546;52.240;16.826;2022-09-29T11:35:21;17.80;98.00
38798;SHT11;24546;52.240;16.826;2022-09-29T11:45:47;18.10;97.50
38798;SHT11;24546;52.240;16.826;2022-09-29T11:50:55;18.20;97.20
38798;SHT11;24546;52.240;16.826;2022-09-29T12:06:53;18.20;96.50
38798;SHT11;24546;52.240;16.826;2022-09-29T12:17:15;18.00;96.40
38798;SHT11;24546;52.240;16.826;2022-09-29T12:22:19;18.00;97.50
38798;SHT11;24546;52.240;16.826;2022-09-29T12:27:32;17.90;97.60
38798;SHT11;24546;52.240;16.826;2022-09-29T12:32:38;17.80;96.60
38798;SHT11;24546;52.240;16.826;2022-09-29T12:37:52;18.10;97.70
38798;SHT11;24546;52.240;16.826;2022-09-29T12:53:36;17.80;95.50
38798;SHT11;24546;52.240;16.826;2022-09-29T13:30:19;17.90;95.20
38798;SHT11;24546;52.240;16.826;2022-09-29T13:35:22;17.60;96.10
38798;SHT11;24546;52.240;16.826;2022-09-29T13:40:27;17.70;96.10
38798;SHT11;24546;52.240;16.826;2022-09-29T13:50:52;17.60;97.30
38798;SHT11;24546;52.240;16.826;2022-09-29T14:01:05;17.60;96.00
38798;SHT11;24546;52.240;16.826;2022-09-29T14:06:18;17.50;96.90
38798;SHT11;24546;52.240;16.826;2022-09-29T14:11:36;17.50;97.60
38798;SHT11;24546;52.240;16.826;2022-09-29T14:21:49;17.40;97.80
38798;SHT11;24546;52.240;16.826;2022-09-29T14:26:52;17.50;98.40
38798;SHT11;24546;52.240;16.826;2022-09-29T14:31:56;17.40;97.50
38798;SHT11;24546;52.240;16.826;2022-09-29T14:36:59;17.40;98.50
38798;SHT11;24546;52.240;16.826;2022-09-29T14:42:01;17.40;98.90
38798;SHT11;24546;52.240;16.826;2022-09-29T14:58:27;17.30;96.90
38798;SHT11;24546;52.240;16.826;2022-09-29T15:03:42;17.20;97.50
38798;SHT11;24546;52.240;16.826;2022-09-29T15:13:58;17.10;99.50
38798;SHT11;24546;52.240;16.826;2022-09-29T15:19:24;16.90;99.70
38798;SHT11;24546;52.240;16.826;2022-09-29T15:29:47;16.50;99.90
38798;SHT11;24546;52.240;16.826;2022-09-29T15:34:51;16.40;99.90
38798;SHT11;24546;52.240;16.826;2022-09-29T15:39:52;16.10;99.90
38798;SHT11;24546;52.240;16.826;2022-09-29T15:45:13;16.00;99.90
38798;SHT11;24546;52.240;16.826;2022-09-29T15:50:20;15.80;99.90
38798;SHT11;24546;52.240;16.826;2022-09-29T15:55:23;15.60;99.90
38798;SHT11;24546;52.240;16.826;2022-09-29T16:00:41;15.50;99.90
38798;SHT11;24546;52.240;16.826;2022-09-29T16:06:02;15.30;99.90
38798;SHT11;24546;52.240;16.826;2022-09-29T16:11:06;15.20;99.90
38798;SHT11;24546;52.240;16.826;2022-09-29T16:16:10;15.00;99.90
38798;SHT11;24546;52.240;16.826;2022-09-29T16:21:15;14.90;99.90
38798;SHT11;24546;52.240;16.826;2022-09-29T16:31:37;14.60;99.90
38798;SHT11;24546;52.240;16.826;2022-09-29T16:41:49;14.20;99.90
38798;SHT11;24546;52.240;16.826;2022-09-29T16:47:21;14.10;99.90
38798;SHT11;24546;52.240;16.826;2022-09-29T16:52:28;14.00;99.90
38798;SHT11;24546;52.240;16.826;2022-09-29T16:57:34;14.00;99.90
38798;SHT11;24546;52.240;16.826;2022-09-29T17:02:37;13.80;99.90
38798;SHT11;24546;52.240;16.826;2022-09-29T17:07:39;13.60;99.90
38798;SHT11;24546;52.240;16.826;2022-09-29T17:12:41;13.60;99.90
38798;SHT11;24546;52.240;16.826;2022-09-29T17:17:46;13.40;99.90
38798;SHT11;24546;52.240;16.826;2022-09-29T17:22:47;13.30;99.90
38798;SHT11;24546;52.240;16.826;2022-09-29T17:27:48;13.20;99.90
38798;SHT11;24546;52.240;16.826;2022-09-29T17:33:10;13.10;99.90
38798;SHT11;24546;52.240;16.826;2022-09-29T17:38:15;12.90;99.90
38798;SHT11;24546;52.240;16.826;2022-09-29T17:43:17;12.90;99.90
38798;SHT11;24546;52.240;16.826;2022-09-29T17:48:17;13.00;99.90
38798;SHT11;24546;52.240;16.826;2022-09-29T17:53:19;12.80;99.90
38798;SHT11;24546;52.240;16.826;2022-09-29T17:58:20;12.60;99.90
38798;SHT11;24546;52.240;16.826;2022-09-29T18:03:23;12.50;99.90
38798;SHT11;24546;52.240;16.826;2022-09-29T18:08:25;12.60;99.90
38798;SHT11;24546;52.240;16.826;2022-09-29T18:13:29;12.30;99.90
38798;SHT11;24546;52.240;16.826;2022-09-29T18:18:31;12.40;99.90
38798;SHT11;24546;52.240;16.826;2022-09-29T18:23:33;12.20;99.90
38798;SHT11;24546;52.240;16.826;2022-09-29T18:28:34;12.00;99.90
38798;SHT11;24546;52.240;16.826;2022-09-29T18:33:35;12.20;99.90
38798;SHT11;24546;52.240;16.826;2022-09-29T18:38:36;11.90;99.90
38798;SHT11;24546;52.240;16.826;2022-09-29T18:43:37;11.90;99.90
38798;SHT11;24546;52.240;16.826;2022-09-29T18:48:41;12.00;99.90
38798;SHT11;24546;52.240;16.826;2022-09-29T18:53:42;11.90;99.90
38798;SHT11;24546;52.240;16.826;2022-09-29T18:58:42;11.80;99.90
38798;SHT11;24546;52.240;16.826;2022-09-29T19:03:44;11.90;99.90
38798;SHT11;24546;52.240;16.826;2022-09-29T19:08:44;11.70;99.90
38798;SHT11;24546;52.240;16.826;2022-09-29T19:13:49;11.60;99.90
38798;SHT11;24546;52.240;16.826;2022-09-29T19:18:56;11.60;99.90
38798;SHT11;24546;52.240;16.826;2022-09-29T19:23:57;11.50;99.90
38798;SHT11;24546;52.240;16.826;2022-09-29T19:28:58;11.40;99.90
38798;SHT11;24546;52.240;16.826;2022-09-29T19:34:01;11.30;99.90
38798;SHT11;24546;52.240;16.826;2022-09-29T19:39:02;11.30;99.90
38798;SHT11;24546;52.240;16.826;2022-09-29T19:44:03;11.10;99.90
38798;SHT11;24546;52.240;16.826;2022-09-29T19:49:04;11.00;99.90
38798;SHT11;24546;52.240;16.826;2022-09-29T19:54:06;10.90;99.90
38798;SHT11;24546;52.240;16.826;2022-09-29T19:59:11;10.80;99.90
38798;SHT11;24546;52.240;16.826;2022-09-29T20:04:13;10.70;99.90
38798;SHT11;24546;52.240;16.826;2022-09-29T20:09:16;10.70;99.90
38798;SHT11;24546;52.240;16.826;2022-09-29T20:14:19;10.60;99.90
38798;SHT11;24546;52.240;16.826;2022-09-29T20:19:23;10.50;99.90
38798;SHT11;24546;52.240;16.826;2022-09-29T20:24:24;10.40;99.90
38798;SHT11;24546;52.240;16.826;2022-09-29T20:29:25;10.30;99.90
38798;SHT11;24546;52.240;16.826;2022-09-29T20:34:26;10.20;99.90
38798;SHT11;24546;52.240;16.826;2022-09-29T20:39:27;10.10;99.90
38798;SHT11;24546;52.240;16.826;2022-09-29T20:44:28;10.10;99.90
38798;SHT11;24546;52.240;16.826;2022-09-29T20:49:29;10.00;99.90
38798;SHT11;24546;52.240;16.826;2022-09-29T20:54:30;9.90;99.90
38798;SHT11;24546;52.240;16.826;2022-09-29T20:59:30;9.80;99.90
38798;SHT11;24546;52.240;16.826;2022-09-29T21:04:31;9.70;99.90
38798;SHT11;24546;52.240;16.826;2022-09-29T21:09:32;9.60;99.90
38798;SHT11;24546;52.240;16.826;2022-09-29T21:14:34;9.50;99.90
38798;SHT11;24546;52.240;16.826;2022-09-29T21:19:37;9.50;99.90
38798;SHT11;24546;52.240;16.826;2022-09-29T21:24:39;9.40;99.90
38798;SHT11;24546;52.240;16.826;2022-09-29T21:29:41;9.40;99.90
38798;SHT11;24546;52.240;16.826;2022-09-29T21:34:42;9.30;99.90
38798;SHT11;24546;52.240;16.826;2022-09-29T21:39:43;9.20;99.90
38798;SHT11;24546;52.240;16.826;2022-09-29T21:44:44;9.20;99.90
38798;SHT11;24546;52.240;16.826;2022-09-29T21:49:45;9.10;99.90
38798;SHT11;24546;52.240;16.826;2022-09-29T21:54:46;9.10;99.90
38798;SHT11;24546;52.240;16.826;2022-09-29T21:59:47;9.00;99.90
38798;SHT11;24546;52.240;16.826;2022-09-29T22:04:48;8.90;99.90
38798;SHT11;24546;52.240;16.826;2022-09-29T22:09:49;8.90;99.90
38798;SHT11;24546;52.240;16.826;2022-09-29T22:14:49;8.80;99.90
38798;SHT11;24546;52.240;16.826;2022-09-29T22:19:51;8.70;99.90
38798;SHT11;24546;52.240;16.826;2022-09-29T22:24:55;8.60;99.90
38798;SHT11;24546;52.240;16.826;2022-09-29T22:29:59;8.60;99.90
38798;SHT11;24546;52.240;16.826;2022-09-29T22:35:00;8.70;99.90
38798;SHT11;24546;52.240;16.826;2022-09-29T22:40:01;8.50;99.90
38798;SHT11;24546;52.240;16.826;2022-09-29T22:45:04;8.50;99.90
38798;SHT11;24546;52.240;16.826;2022-09-29T22:50:05;8.40;99.90
38798;SHT11;24546;52.240;16.826;2022-09-29T22:55:06;8.40;99.90
38798;SHT11;24546;52.240;16.826;2022-09-29T23:00:10;8.50;99.90
38798;SHT11;24546;52.240;16.826;2022-09-29T23:05:12;8.60;99.90
38798;SHT11;24546;52.240;16.826;2022-09-29T23:10:13;8.70;99.90
38798;SHT11;24546;52.240;16.826;2022-09-29T23:15:14;8.70;99.90
38798;SHT11;24546;52.240;16.826;2022-09-29T23:20:15;8.80;99.90
38798;SHT11;24546;52.240;16.826;2022-09-29T23:25:16;8.80;99.90
38798;SHT11;24546;52.240;16.826;2022-09-29T23:30:16;8.80;99.90
38798;SHT11;24546;52.240;16.826;2022-09-29T23:35:17;8.90;99.90
38798;SHT11;24546;52.240;16.826;2022-09-29T23:40:18;8.90;99.90
38798;SHT11;24546;52.240;16.826;2022-09-29T23:45:20;8.90;99.90
38798;SHT11;24546;52.240;16.826;2022-09-29T23:50:20;8.90;99.90
38798;SHT11;24546;52.240;16.826;2022-09-29T23:55:22;8.90;99.90
